createdAt,value
2023-11-12T00:00:50.176Z,82.45
2023-11-12T00:03:18.177Z,102.22
2023-11-12T00:05:46.511Z,86.03
2023-11-12T00:08:14.478Z,83.73
2023-11-12T00:10:45.799Z,84.18
2023-11-12T00:13:13.967Z,84.15
2023-11-12T00:15:42.032Z,84.70
2023-11-12T00:18:10.039Z,79.80
2023-11-12T00:20:37.731Z,78.63
2023-11-12T00:23:05.612Z,78.03
2023-11-12T00:25:33.448Z,82.28
2023-11-12T00:28:01.236Z,83.90
2023-11-12T00:30:29.381Z,73.78
2023-11-12T00:32:57.755Z,75.47
2023-11-12T00:35:25.699Z,60.40
2023-11-12T00:37:54.628Z,72.25
2023-11-12T00:40:22.753Z,72.30
2023-11-12T00:42:50.634Z,68.75
2023-11-12T00:45:19.258Z,71.15
2023-11-12T00:47:47.953Z,61.47
2023-11-12T00:50:17.472Z,66.57
2023-11-12T00:55:13.583Z,67.03
2023-11-12T00:57:41.250Z,69.55
2023-11-12T01:00:10.115Z,61.72
2023-11-12T01:02:38.059Z,56.42
2023-11-12T01:05:06.722Z,59.08
2023-11-12T01:07:37.335Z,58.47
2023-11-12T01:10:05.878Z,59.97
2023-11-12T01:12:33.723Z,62.72
2023-11-12T01:15:01.466Z,62.22
2023-11-12T01:17:30.276Z,59.28
2023-11-12T01:19:58.214Z,54.67
2023-11-12T01:22:26.445Z,62.33
2023-11-12T01:24:54.339Z,50.10
2023-11-12T01:27:22.749Z,53.42
2023-11-12T01:29:50.605Z,51.73
2023-11-12T01:32:18.980Z,55.53
2023-11-12T01:34:46.749Z,59.07
2023-11-12T01:37:14.827Z,52.78
2023-11-12T01:39:42.698Z,52.17
2023-11-12T01:42:13.118Z,54.47
2023-11-12T01:44:41.018Z,52.15
2023-11-12T01:47:10.950Z,50.30
2023-11-12T01:49:40.697Z,46.22
2023-11-12T01:52:12.536Z,48.90
2023-11-12T01:54:41.184Z,50.08
2023-11-12T01:57:09.723Z,41.78
2023-11-12T01:59:37.717Z,36.70
2023-11-12T02:02:06.537Z,53.25
2023-11-12T02:04:34.495Z,60.85
2023-11-12T02:07:02.954Z,57.33
2023-11-12T02:09:30.937Z,49.03
2023-11-12T02:11:58.827Z,49.17
2023-11-12T02:14:27.279Z,56.90
2023-11-12T02:16:56.650Z,52.97
2023-11-12T02:19:29.784Z,48.42
2023-11-12T02:21:59.090Z,58.83
2023-11-12T02:24:27.079Z,46.85
2023-11-12T02:26:55.316Z,52.35
2023-11-12T02:29:23.322Z,38.33
2023-11-12T02:31:51.244Z,54.58
2023-11-12T02:34:19.559Z,50.28
2023-11-12T02:36:47.700Z,55.13
2023-11-12T02:39:16.796Z,45.88
2023-11-12T02:41:45.725Z,51.45
2023-11-12T02:44:14.591Z,54.03
2023-11-12T02:46:43.246Z,53.40
2023-11-12T02:49:45.257Z,47.53
2023-11-12T02:52:13.214Z,51.05
2023-11-12T02:54:41.300Z,49.17
2023-11-12T02:57:09.774Z,52.25
2023-11-12T02:59:37.548Z,53.38
2023-11-12T03:06:57.790Z,46.75
2023-11-12T03:09:26.612Z,50.10
2023-11-12T03:11:55.149Z,48.15
2023-11-12T03:14:23.097Z,51.08
2023-11-12T03:16:50.922Z,58.15
2023-11-12T03:19:19.190Z,47.25
2023-11-12T03:21:54.216Z,45.90
2023-11-12T03:24:23.218Z,52.75
2023-11-12T03:26:56.709Z,49.88
2023-11-12T03:29:24.594Z,41.38
2023-11-12T03:31:55.000Z,39.30
2023-11-12T03:34:25.867Z,43.15
2023-11-12T03:36:53.849Z,34.20
2023-11-12T03:39:21.961Z,41.15
2023-11-12T03:41:49.853Z,36.28
2023-11-12T03:44:17.744Z,37.88
2023-11-12T03:46:45.622Z,39.28
2023-11-12T03:49:13.505Z,34.92
2023-11-12T03:51:41.267Z,39.17
2023-11-12T03:54:11.454Z,43.95
2023-11-12T03:56:39.797Z,43.80
2023-11-12T03:59:08.325Z,34.63
2023-11-12T04:01:36.407Z,46.63
2023-11-12T04:04:04.449Z,45.00
2023-11-12T04:06:32.956Z,43.38
2023-11-12T04:09:00.893Z,38.05
2023-11-12T04:11:28.613Z,38.30
2023-11-12T04:13:56.556Z,39.88
2023-11-12T04:16:24.392Z,36.15
2023-11-12T04:18:54.670Z,42.40
2023-11-12T04:21:23.369Z,34.50
2023-11-12T04:23:51.227Z,30.52
2023-11-12T04:26:19.132Z,30.67
2023-11-12T04:28:46.846Z,34.47
2023-11-12T04:31:15.481Z,32.20
2023-11-12T04:33:44.417Z,22.92
2023-11-12T04:36:14.080Z,31.52
2023-11-12T04:38:42.416Z,29.85
2023-11-12T04:41:12.997Z,31.10
2023-11-12T04:43:43.731Z,29.98
2023-11-12T04:46:12.546Z,37.17
2023-11-12T04:48:40.855Z,36.20
2023-11-12T04:51:09.398Z,35.28
2023-11-12T04:53:38.913Z,36.50
2023-11-12T04:56:11.229Z,39.63
2023-11-12T04:58:40.152Z,34.90
2023-11-12T05:01:07.934Z,39.28
2023-11-12T05:03:35.725Z,38.97
2023-11-12T05:06:05.138Z,39.38
2023-11-12T05:08:33.039Z,40.95
2023-11-12T05:11:00.884Z,42.58
2023-11-12T05:13:28.799Z,51.38
2023-11-12T05:15:57.979Z,49.60
2023-11-12T05:18:25.873Z,46.95
2023-11-12T05:20:53.540Z,47.30
2023-11-12T05:23:21.352Z,46.30
2023-11-12T05:25:49.182Z,39.05
2023-11-12T05:28:16.971Z,34.53
2023-11-12T05:30:44.824Z,40.38
2023-11-12T05:33:12.685Z,43.97
2023-11-12T05:35:40.415Z,41.75
2023-11-12T05:38:08.671Z,46.28
2023-11-12T05:40:36.526Z,31.27
2023-11-12T05:43:04.331Z,44.95
2023-11-12T05:45:32.371Z,43.00
2023-11-12T05:48:00.179Z,48.28
2023-11-12T05:50:27.867Z,40.25
2023-11-12T05:52:55.692Z,43.28
2023-11-12T05:55:23.445Z,42.45
2023-11-12T05:57:52.086Z,49.90
2023-11-12T06:00:20.789Z,41.67
2023-11-12T06:02:48.705Z,49.17
2023-11-12T06:05:17.128Z,38.95
2023-11-12T06:07:45.870Z,44.67
2023-11-12T06:10:14.551Z,43.80
2023-11-12T06:12:42.233Z,36.67
2023-11-12T06:15:11.854Z,47.33
2023-11-12T06:17:40.853Z,53.97
2023-11-12T06:20:09.131Z,49.10
2023-11-12T06:22:39.381Z,46.10
2023-11-12T06:25:12.758Z,45.22
2023-11-12T06:27:41.066Z,48.47
2023-11-12T06:30:10.342Z,43.70
2023-11-12T06:32:39.532Z,43.28
2023-11-12T06:37:35.614Z,28.65
2023-11-12T06:40:04.338Z,41.45
2023-11-12T06:42:33.478Z,31.52
2023-11-12T06:47:28.704Z,42.03
2023-11-12T06:49:57.928Z,44.28
2023-11-12T06:52:25.814Z,42.83
2023-11-12T06:54:53.535Z,39.28
2023-11-12T06:57:21.684Z,45.08
2023-11-12T06:59:49.448Z,37.65
2023-11-12T07:02:17.365Z,37.05
2023-11-12T07:04:45.315Z,36.17
2023-11-12T07:07:16.894Z,35.65
2023-11-12T07:09:47.520Z,41.40
2023-11-12T07:12:16.665Z,32.25
2023-11-12T07:14:44.624Z,38.35
2023-11-12T07:17:12.540Z,39.22
2023-11-12T07:19:45.490Z,40.05
2023-11-12T07:22:13.425Z,39.55
2023-11-12T07:24:41.227Z,44.83
2023-11-12T07:27:09.086Z,40.95
2023-11-12T07:29:36.856Z,40.58
2023-11-12T07:32:07.675Z,42.88
2023-11-12T07:34:35.301Z,34.75
2023-11-12T07:37:06.371Z,41.45
2023-11-12T07:39:34.393Z,34.90
2023-11-12T07:42:02.605Z,38.53
2023-11-12T07:44:32.223Z,43.00
2023-11-12T07:46:59.941Z,34.03
2023-11-12T07:49:27.838Z,37.38
2023-11-12T07:51:55.639Z,35.10
2023-11-12T07:54:24.307Z,31.25
2023-11-12T07:56:52.129Z,27.70
2023-11-12T07:59:19.961Z,25.10
2023-11-12T08:01:49.468Z,36.92
2023-11-12T08:04:18.611Z,27.42
2023-11-12T08:06:50.714Z,29.90
2023-11-12T08:09:18.714Z,32.05
2023-11-12T08:11:46.700Z,31.80
2023-11-12T08:14:15.201Z,32.15
2023-11-12T08:16:43.684Z,31.52
2023-11-12T08:19:12.097Z,47.35
2023-11-12T08:21:40.240Z,34.28
2023-11-12T08:24:08.725Z,36.75
2023-11-12T08:26:40.124Z,38.65
2023-11-12T08:29:08.658Z,39.63
2023-11-12T08:31:37.507Z,28.80
2023-11-12T08:34:07.030Z,30.08
2023-11-12T08:36:34.937Z,31.08
2023-11-12T08:39:06.045Z,33.42
2023-11-12T08:41:34.368Z,31.55
2023-11-12T08:44:02.378Z,33.33
2023-11-12T08:46:30.412Z,33.72
2023-11-12T08:48:58.347Z,36.20
2023-11-12T08:51:26.303Z,30.73
2023-11-12T08:53:54.274Z,32.50
2023-11-12T08:56:22.050Z,40.80
2023-11-12T08:58:49.887Z,28.77
2023-11-12T09:01:17.548Z,33.45
2023-11-12T09:03:46.018Z,29.85
2023-11-12T09:06:13.810Z,32.00
2023-11-12T09:08:41.602Z,34.53
2023-11-12T09:11:14.183Z,27.73
2023-11-12T09:13:43.691Z,30.92
2023-11-12T09:16:12.264Z,28.48
2023-11-12T09:18:40.980Z,27.67
2023-11-12T09:21:08.788Z,29.02
2023-11-12T09:23:36.738Z,22.25
2023-11-12T09:26:05.672Z,26.90
2023-11-12T09:28:33.361Z,28.42
2023-11-12T09:31:01.519Z,24.40
2023-11-12T09:33:29.451Z,26.88
2023-11-12T09:35:57.508Z,27.80
2023-11-12T09:38:25.521Z,26.83
2023-11-12T09:40:54.791Z,29.60
2023-11-12T09:43:29.527Z,25.50
2023-11-12T09:45:58.529Z,27.23
2023-11-12T09:51:09.231Z,24.30
2023-11-12T09:53:43.609Z,23.35
2023-11-12T09:56:11.662Z,26.20
2023-11-12T09:58:46.567Z,26.77
2023-11-12T10:01:15.260Z,26.23
2023-11-12T10:03:49.041Z,20.73
2023-11-12T10:06:18.222Z,20.63
2023-11-12T10:08:46.445Z,16.50
2023-11-12T10:11:19.120Z,16.93
2023-11-12T10:13:47.912Z,19.33
2023-11-12T10:16:32.117Z,21.20
2023-11-12T10:19:15.475Z,19.33
2023-11-12T10:21:57.876Z,16.77
2023-11-12T10:24:30.806Z,20.35
2023-11-12T10:27:02.614Z,15.68
2023-11-12T10:29:30.526Z,19.13
2023-11-12T10:31:59.048Z,15.73
2023-11-12T10:34:28.877Z,11.70
2023-11-12T10:37:11.419Z,21.88
2023-11-12T10:39:43.002Z,18.63
2023-11-12T10:42:20.989Z,19.33
2023-11-12T10:49:51.493Z,15.90
2023-11-12T10:52:20.222Z,16.77
2023-11-12T10:54:48.593Z,21.90
2023-11-12T10:57:20.215Z,18.20
2023-11-12T10:59:50.398Z,17.50
2023-11-12T11:02:19.981Z,18.55
2023-11-12T11:04:48.512Z,18.63
2023-11-12T11:07:17.591Z,18.88
2023-11-12T11:09:45.782Z,18.15
2023-11-12T11:12:15.110Z,19.50
2023-11-12T11:14:42.957Z,20.02
2023-11-12T11:17:42.054Z,20.10
2023-11-12T11:20:13.406Z,18.77
2023-11-12T11:22:42.908Z,22.17
2023-11-12T11:25:31.133Z,21.05
2023-11-12T11:28:35.678Z,13.70
2023-11-12T11:31:12.448Z,17.73
2023-11-12T11:33:49.485Z,17.05
2023-11-12T11:36:19.956Z,18.45
2023-11-12T11:39:24.920Z,16.60
2023-11-12T11:41:54.922Z,14.55
2023-11-12T11:44:48.012Z,15.13
2023-11-12T11:47:24.802Z,14.88
2023-11-12T11:49:59.100Z,14.25
2023-11-12T11:52:30.984Z,17.00
2023-11-12T11:55:01.552Z,18.02
2023-11-12T11:57:33.212Z,18.73
2023-11-12T12:00:02.612Z,15.27
2023-11-12T12:02:43.165Z,20.02
2023-11-12T12:05:14.179Z,21.17
2023-11-12T12:07:46.121Z,18.40
2023-11-12T12:10:27.950Z,20.52
2023-11-12T12:12:56.486Z,23.40
2023-11-12T12:15:24.662Z,19.58
2023-11-12T12:17:52.648Z,18.00
2023-11-12T12:20:21.191Z,20.63
2023-11-12T12:22:49.273Z,22.17
2023-11-12T12:25:18.016Z,19.13
2023-11-12T12:27:53.933Z,20.40
2023-11-12T12:30:21.973Z,24.55
2023-11-12T12:32:50.698Z,19.88
2023-11-12T12:35:23.883Z,19.63
2023-11-12T12:37:51.774Z,24.15
2023-11-12T12:40:29.337Z,20.00
2023-11-12T12:42:59.006Z,18.40
2023-11-12T12:47:57.016Z,19.50
2023-11-12T12:50:33.719Z,24.63
2023-11-12T12:53:16.280Z,18.83
2023-11-12T12:55:45.842Z,20.20
2023-11-12T12:58:14.129Z,19.63
2023-11-12T13:00:44.376Z,24.02
2023-11-12T13:03:28.330Z,21.13
2023-11-12T13:05:57.961Z,22.08
2023-11-12T13:08:25.857Z,21.30
2023-11-12T13:10:55.566Z,26.38
2023-11-12T13:13:25.429Z,20.05
2023-11-12T13:15:53.311Z,17.67
2023-11-12T13:18:23.678Z,23.33
2023-11-12T13:20:52.780Z,17.90
2023-11-12T13:25:51.114Z,18.40
2023-11-12T13:28:19.467Z,20.92
2023-11-12T13:30:48.700Z,23.37
2023-11-12T13:33:17.462Z,18.58
2023-11-12T13:35:46.402Z,22.40
2023-11-12T13:38:14.587Z,15.45
2023-11-12T13:40:42.435Z,15.65
2023-11-12T13:43:10.399Z,13.70
2023-11-12T13:45:39.314Z,17.73
2023-11-12T13:48:09.569Z,14.60
2023-11-12T13:50:37.761Z,18.40
2023-11-12T13:53:10.829Z,19.27
2023-11-12T13:55:42.467Z,20.88
2023-11-12T13:58:14.896Z,17.13
2023-11-12T14:00:43.899Z,14.00
2023-11-12T14:03:12.926Z,14.98
2023-11-12T14:05:41.125Z,20.92
2023-11-12T14:08:12.265Z,14.20
2023-11-12T14:10:41.222Z,19.13
2023-11-12T14:13:10.592Z,18.77
2023-11-12T14:15:40.261Z,17.17
2023-11-12T14:18:08.899Z,17.35
2023-11-12T14:20:36.842Z,14.10
2023-11-12T14:23:04.618Z,14.18
2023-11-12T14:25:32.386Z,17.70
2023-11-12T14:28:04.269Z,15.30
2023-11-12T14:30:38.224Z,14.52
2023-11-12T14:33:08.509Z,14.82
2023-11-12T14:35:36.397Z,17.42
2023-11-12T14:38:06.809Z,19.98
2023-11-12T14:40:34.531Z,14.70
2023-11-12T14:43:08.032Z,22.90
2023-11-12T14:45:39.075Z,16.95
2023-11-12T14:48:08.745Z,23.05
2023-11-12T14:50:37.985Z,19.90
